createdAt,value
2017-12-21T00:00:27.658Z,99038.84
2017-12-21T00:02:55.170Z,99038.42
2017-12-21T00:05:22.681Z,99040.94
2017-12-21T00:07:50.234Z,99039.53
2017-12-21T00:10:17.739Z,99049.40
2017-12-21T00:12:45.249Z,99045.33
2017-12-21T00:15:13.114Z,99052.94
2017-12-21T00:17:40.675Z,99061.63
2017-12-21T00:20:08.233Z,99057.11
2017-12-21T00:22:41.218Z,99066.80
2017-12-21T00:25:08.730Z,99070.78
2017-12-21T00:27:36.234Z,99076.26
2017-12-21T00:30:03.778Z,99083.96
2017-12-21T00:32:31.291Z,99081.95
2017-12-21T00:34:58.799Z,99092.00
2017-12-21T00:37:26.680Z,99083.41
2017-12-21T00:39:54.180Z,99082.56
2017-12-21T00:42:21.690Z,99083.22
2017-12-21T00:44:49.250Z,99074.87
2017-12-21T00:47:16.760Z,99084.03
2017-12-21T00:49:45.730Z,99073.14
2017-12-21T00:52:13.433Z,99072.06
2017-12-21T00:54:40.953Z,99070.99
2017-12-21T00:57:08.479Z,99074.19
2017-12-21T00:59:36.039Z,99073.23
2017-12-21T01:02:03.552Z,99077.41
2017-12-21T01:04:31.065Z,99083.03
2017-12-21T01:06:58.614Z,99076.06
2017-12-21T01:09:26.168Z,99080.41
2017-12-21T01:11:53.677Z,99074.61
2017-12-21T01:14:21.378Z,99071.85
2017-12-21T01:16:48.885Z,99071.80
2017-12-21T01:19:16.434Z,99063.40
2017-12-21T01:21:44.173Z,99063.05
2017-12-21T01:24:11.676Z,99064.45
2017-12-21T01:26:39.197Z,99072.42
2017-12-21T01:29:06.759Z,99073.84
2017-12-21T01:31:34.306Z,99066.25
2017-12-21T01:34:01.826Z,99061.95
2017-12-21T01:36:29.607Z,99063.15
2017-12-21T01:38:57.114Z,99064.00
2017-12-21T01:41:24.646Z,99066.48
2017-12-21T01:43:52.545Z,99065.14
2017-12-21T01:46:20.088Z,99055.83
2017-12-21T01:48:47.628Z,99067.52
2017-12-21T01:51:15.189Z,99047.22
2017-12-21T01:53:42.697Z,99039.23
2017-12-21T01:56:10.230Z,99048.09
2017-12-21T01:58:37.790Z,99055.58
2017-12-21T02:01:05.323Z,99066.09
2017-12-21T02:03:32.834Z,99054.03
2017-12-21T02:06:00.429Z,99051.64
2017-12-21T02:08:27.937Z,99058.98
2017-12-21T02:10:55.448Z,99055.00
2017-12-21T02:13:23.108Z,99061.25
2017-12-21T02:15:50.591Z,99068.19
2017-12-21T02:18:18.134Z,99068.66
2017-12-21T02:20:45.865Z,99065.08
2017-12-21T02:23:13.373Z,99072.55
2017-12-21T02:25:40.914Z,99073.77
2017-12-21T02:28:08.557Z,99081.52
2017-12-21T02:30:37.057Z,99077.48
2017-12-21T02:33:04.565Z,99082.06
2017-12-21T02:35:32.379Z,99074.50
2017-12-21T02:37:59.882Z,99078.48
2017-12-21T02:40:28.363Z,99077.48
2017-12-21T02:42:55.988Z,99071.19
2017-12-21T02:45:23.490Z,99068.32
2017-12-21T02:47:51.003Z,99069.19
2017-12-21T02:50:18.553Z,99066.00
2017-12-21T02:52:46.093Z,99062.16
2017-12-21T02:55:13.597Z,99059.83
2017-12-21T02:57:41.150Z,99062.14
2017-12-21T03:00:08.790Z,99065.16
2017-12-21T03:02:36.367Z,99055.37
2017-12-21T03:05:04.113Z,99064.23
2017-12-21T03:07:31.617Z,99069.17
2017-12-21T03:09:59.128Z,99076.83
2017-12-21T03:12:26.687Z,99062.87
2017-12-21T03:14:54.191Z,99064.27
2017-12-21T03:17:21.806Z,99060.53
2017-12-21T03:19:49.349Z,99063.53
2017-12-21T03:22:16.856Z,99061.13
2017-12-21T03:24:44.379Z,99045.85
2017-12-21T03:27:12.069Z,99047.36
2017-12-21T03:29:39.600Z,99043.27
2017-12-21T03:32:07.108Z,99041.55
2017-12-21T03:34:34.784Z,99042.55
2017-12-21T03:37:02.290Z,99039.56
2017-12-21T03:39:29.836Z,99044.58
2017-12-21T03:41:57.703Z,99051.80
2017-12-21T03:44:25.262Z,99053.35
2017-12-21T03:46:52.765Z,99053.69
2017-12-21T03:49:20.326Z,99054.96
2017-12-21T03:51:47.857Z,99050.74
2017-12-21T03:54:15.379Z,99044.28
2017-12-21T03:56:43.160Z,99041.33
2017-12-21T03:59:10.719Z,99039.23
2017-12-21T04:01:38.225Z,99033.66
2017-12-21T04:04:05.768Z,99040.55
2017-12-21T04:06:33.274Z,99050.80
2017-12-21T04:09:00.785Z,99048.08
2017-12-21T04:11:28.490Z,99056.09
2017-12-21T04:13:56.021Z,99060.05
2017-12-21T04:16:23.536Z,99060.91
2017-12-21T04:18:51.293Z,99065.06
2017-12-21T04:21:18.801Z,99064.67
2017-12-21T04:23:46.314Z,99056.25
2017-12-21T04:26:13.878Z,99059.94
2017-12-21T04:28:41.427Z,99056.95
2017-12-21T04:31:08.959Z,99056.87
2017-12-21T04:33:36.497Z,99057.66
2017-12-21T04:36:04.025Z,99065.13
2017-12-21T04:38:31.530Z,99057.13
2017-12-21T04:40:59.192Z,99062.14
2017-12-21T04:43:26.698Z,99067.19
2017-12-21T04:45:54.238Z,99072.00
2017-12-21T04:48:22.172Z,99083.90
2017-12-21T04:50:49.693Z,99080.48
2017-12-21T04:53:17.223Z,99072.63
2017-12-21T04:55:44.987Z,99076.09
2017-12-21T04:58:12.506Z,99077.11
2017-12-21T05:00:40.018Z,99075.16
2017-12-21T05:03:07.557Z,99075.81
2017-12-21T05:05:35.070Z,99069.19
2017-12-21T05:08:02.582Z,99074.17
2017-12-21T05:10:30.344Z,99073.71
2017-12-21T05:12:57.901Z,99073.58
2017-12-21T05:15:25.454Z,99077.40
2017-12-21T05:17:53.017Z,99077.34
2017-12-21T05:20:20.526Z,99071.16
2017-12-21T05:22:48.035Z,99067.20
2017-12-21T05:25:15.589Z,99068.65
2017-12-21T05:27:43.124Z,99066.45
2017-12-21T05:30:10.648Z,99071.98
2017-12-21T05:32:38.313Z,99064.16
2017-12-21T05:35:05.832Z,99064.20
2017-12-21T05:37:33.389Z,99061.55
2017-12-21T05:40:00.947Z,99059.41
2017-12-21T05:42:28.510Z,99055.53
2017-12-21T05:44:56.018Z,99054.33
2017-12-21T05:47:23.626Z,99058.53
2017-12-21T05:49:51.158Z,99060.41
2017-12-21T05:52:18.669Z,99065.13
2017-12-21T05:54:46.249Z,99062.36
2017-12-21T05:57:13.778Z,99062.33
2017-12-21T05:59:41.317Z,99063.86
2017-12-21T06:02:09.158Z,99067.55
2017-12-21T06:04:37.481Z,99075.45
2017-12-21T06:07:05.019Z,99080.82
2017-12-21T06:09:32.577Z,99069.56
2017-12-21T06:12:00.650Z,99071.21
2017-12-21T06:14:28.164Z,99070.14
2017-12-21T06:16:55.734Z,99075.56
2017-12-21T06:19:23.247Z,99077.78
2017-12-21T06:21:50.764Z,99072.56
2017-12-21T06:24:18.458Z,99065.52
2017-12-21T06:26:46.004Z,99067.95
2017-12-21T06:29:13.564Z,99068.96
2017-12-21T06:31:41.145Z,99073.66
2017-12-21T06:34:08.659Z,99066.50
2017-12-21T06:36:36.169Z,99068.16
2017-12-21T06:39:04.720Z,99064.98
2017-12-21T06:41:32.240Z,99063.41
2017-12-21T06:43:59.750Z,99062.58
2017-12-21T06:46:27.501Z,99067.32
2017-12-21T06:48:55.064Z,99068.05
2017-12-21T06:51:22.618Z,99064.80
2017-12-21T06:53:50.598Z,99066.70
2017-12-21T06:56:18.142Z,99062.03
2017-12-21T06:58:45.662Z,99063.36
2017-12-21T07:01:13.466Z,99060.27
2017-12-21T07:03:40.976Z,99060.78
2017-12-21T07:06:08.503Z,99065.27
2017-12-21T07:08:36.125Z,99066.47
2017-12-21T07:11:03.660Z,99063.89
2017-12-21T07:13:31.172Z,99066.77
2017-12-21T07:15:58.718Z,99072.06
2017-12-21T07:18:26.224Z,99064.48
2017-12-21T07:20:53.729Z,99061.17
2017-12-21T07:23:21.397Z,99063.31
2017-12-21T07:25:48.905Z,99061.40
2017-12-21T07:28:16.422Z,99063.58
2017-12-21T07:30:44.380Z,99065.39
2017-12-21T07:33:11.890Z,99070.92
2017-12-21T07:35:39.411Z,99062.24
2017-12-21T07:38:07.162Z,99069.05
2017-12-21T07:40:34.665Z,99072.06
2017-12-21T07:43:02.185Z,99082.25
2017-12-21T07:45:29.754Z,99079.58
2017-12-21T07:47:57.280Z,99080.67
2017-12-21T07:50:24.785Z,99085.89
2017-12-21T07:52:52.323Z,99089.23
2017-12-21T07:55:19.871Z,99083.25
2017-12-21T07:57:47.377Z,99077.37
2017-12-21T08:00:15.296Z,99083.27
2017-12-21T08:02:42.857Z,99077.78
2017-12-21T08:05:10.415Z,99080.47
2017-12-21T08:07:38.280Z,99067.98
2017-12-21T08:10:06.761Z,99069.17
2017-12-21T08:12:34.267Z,99061.45
2017-12-21T08:15:01.960Z,99071.03
2017-12-21T08:17:29.848Z,99073.89
2017-12-21T08:19:57.358Z,99086.27
2017-12-21T08:22:25.087Z,99082.47
2017-12-21T08:24:52.627Z,99072.14
2017-12-21T08:27:21.209Z,99073.59
2017-12-21T08:29:48.961Z,99088.52
2017-12-21T08:32:16.469Z,99092.52
2017-12-21T08:34:44.005Z,99094.69
2017-12-21T08:37:11.655Z,99102.37
2017-12-21T08:39:39.161Z,99089.98
2017-12-21T08:42:06.657Z,99091.66
2017-12-21T08:44:34.213Z,99094.66
2017-12-21T08:47:01.722Z,99089.81
2017-12-21T08:49:29.234Z,99101.75
2017-12-21T08:51:56.902Z,99113.70
2017-12-21T08:54:24.426Z,99112.02
2017-12-21T08:56:51.933Z,99111.48
2017-12-21T08:59:19.681Z,99106.03
2017-12-21T09:01:47.186Z,99117.48
2017-12-21T09:04:14.697Z,99118.39
2017-12-21T09:06:42.283Z,99110.80
2017-12-21T09:09:09.820Z,99119.51
2017-12-21T09:11:37.330Z,99124.28
2017-12-21T09:14:04.882Z,99124.20
2017-12-21T09:16:32.392Z,99123.17
2017-12-21T09:18:59.889Z,99121.63
2017-12-21T09:21:27.453Z,99124.02
2017-12-21T09:23:54.971Z,99118.92
2017-12-21T09:26:22.528Z,99130.88
2017-12-21T09:28:50.076Z,99122.58
2017-12-21T09:31:17.582Z,99122.14
2017-12-21T09:33:45.086Z,99119.05
2017-12-21T09:36:12.649Z,99120.30
2017-12-21T09:38:40.150Z,99112.23
2017-12-21T09:41:07.659Z,99110.64
2017-12-21T09:43:35.234Z,99105.49
2017-12-21T09:46:02.733Z,99109.89
2017-12-21T09:48:30.250Z,99107.77
2017-12-21T09:50:58.116Z,99110.65
2017-12-21T09:53:25.730Z,99108.10
2017-12-21T09:55:54.364Z,99105.20
2017-12-21T09:58:22.331Z,99094.85
2017-12-21T10:00:49.833Z,99102.42
2017-12-21T10:03:17.756Z,99095.32
2017-12-21T10:05:45.518Z,99097.74
2017-12-21T10:08:14.615Z,99093.97
2017-12-21T10:10:42.173Z,99094.44
2017-12-21T10:13:10.650Z,99094.11
2017-12-21T10:15:38.145Z,99091.97
2017-12-21T10:18:06.509Z,99084.77
2017-12-21T10:20:34.459Z,99087.34
2017-12-21T10:23:02.425Z,99088.63
2017-12-21T10:25:29.929Z,99090.73
2017-12-21T10:27:57.990Z,99086.09
2017-12-21T10:30:25.525Z,99084.00
2017-12-21T10:32:54.610Z,99091.12
2017-12-21T10:35:22.372Z,99089.05
2017-12-21T10:37:50.668Z,99083.95
2017-12-21T10:40:18.185Z,99089.02
2017-12-21T10:42:45.869Z,99089.02
2017-12-21T10:45:13.369Z,99084.39
2017-12-21T10:47:40.869Z,99086.94
2017-12-21T10:50:08.549Z,99083.98
2017-12-21T10:52:36.105Z,99081.45
2017-12-21T10:55:03.666Z,99090.72
2017-12-21T10:57:31.394Z,99085.25
2017-12-21T10:59:58.889Z,99085.23
2017-12-21T11:02:26.400Z,99086.51
2017-12-21T11:04:54.926Z,99079.78
2017-12-21T11:07:22.484Z,99077.67
2017-12-21T11:09:49.982Z,99076.83
2017-12-21T11:12:17.706Z,99080.20
2017-12-21T11:14:45.205Z,99073.41
2017-12-21T11:17:12.700Z,99073.33
2017-12-21T11:19:40.263Z,99076.28
2017-12-21T11:22:07.765Z,99076.77
2017-12-21T11:24:36.216Z,99067.47
2017-12-21T11:27:03.776Z,99067.94
2017-12-21T11:29:32.249Z,99067.09
2017-12-21T11:32:00.430Z,99062.45
2017-12-21T11:34:28.100Z,99065.44
2017-12-21T11:36:55.669Z,99055.72
2017-12-21T11:39:23.165Z,99051.92
2017-12-21T11:41:51.288Z,99055.34
2017-12-21T11:44:18.827Z,99053.63
2017-12-21T11:46:46.809Z,99047.31
2017-12-21T11:49:15.375Z,99047.72
2017-12-21T11:51:43.904Z,99042.22
2017-12-21T11:54:11.424Z,99033.81
2017-12-21T11:56:39.002Z,99035.88
2017-12-21T11:59:06.496Z,99032.09
2017-12-21T12:01:34.905Z,99034.17
2017-12-21T12:04:03.308Z,99031.63
2017-12-21T12:06:31.718Z,99027.84
2017-12-21T12:08:59.226Z,99022.32
2017-12-21T12:11:28.761Z,99012.73
2017-12-21T12:13:56.720Z,99009.70
2017-12-21T12:16:25.057Z,99003.06
2017-12-21T12:18:54.395Z,99002.94
2017-12-21T12:21:21.930Z,98999.24
2017-12-21T12:23:49.634Z,98994.09
2017-12-21T12:26:17.550Z,98995.83
2017-12-21T12:28:46.007Z,98992.90
2017-12-21T12:31:13.550Z,98992.50
2017-12-21T12:33:42.106Z,98995.39
2017-12-21T12:36:09.724Z,98981.02
2017-12-21T12:38:38.436Z,98981.11
2017-12-21T12:41:06.000Z,98981.85
2017-12-21T12:43:34.394Z,98983.45
2017-12-21T12:46:02.103Z,98975.40
2017-12-21T12:48:29.925Z,98984.14
2017-12-21T12:50:57.429Z,98990.83
2017-12-21T12:53:25.036Z,98989.17
2017-12-21T12:55:52.634Z,98990.61
2017-12-21T12:58:21.179Z,98984.66
2017-12-21T13:00:48.743Z,98980.03
2017-12-21T13:03:16.604Z,98984.30
2017-12-21T13:05:44.164Z,98986.38
2017-12-21T13:08:11.927Z,98984.78
2017-12-21T13:10:39.769Z,98991.45
2017-12-21T13:13:07.764Z,98982.61
2017-12-21T13:15:35.494Z,98988.47
2017-12-21T13:18:03.699Z,98980.92
2017-12-21T13:20:31.260Z,98986.08
2017-12-21T13:22:58.917Z,98987.79
2017-12-21T13:25:26.916Z,98983.10
2017-12-21T13:27:54.653Z,98975.97
2017-12-21T13:30:22.215Z,98981.20
2017-12-21T13:32:50.082Z,98979.06
2017-12-21T13:35:17.639Z,98974.33
2017-12-21T13:37:45.183Z,98976.03
2017-12-21T13:40:13.041Z,98970.09
2017-12-21T13:42:40.623Z,98974.73
2017-12-21T13:45:08.591Z,98972.73
2017-12-21T13:47:36.222Z,98976.02
2017-12-21T13:50:04.820Z,98969.70
2017-12-21T13:52:32.395Z,98964.65
2017-12-21T13:55:00.987Z,98968.02
2017-12-21T13:57:28.844Z,98964.76
2017-12-21T13:59:56.570Z,98965.62
2017-12-21T14:02:24.478Z,98964.66
2017-12-21T14:04:52.240Z,98962.18
2017-12-21T14:07:19.746Z,98956.30
2017-12-21T14:09:48.557Z,98958.03
2017-12-21T14:12:16.058Z,98964.27
2017-12-21T14:14:44.665Z,98965.23
2017-12-21T14:17:12.293Z,98960.61
2017-12-21T14:19:40.052Z,98964.36
2017-12-21T14:22:07.816Z,98965.53
2017-12-21T14:24:35.887Z,98964.67
2017-12-21T14:27:03.399Z,98968.83
2017-12-21T14:29:31.234Z,98966.75
2017-12-21T14:31:59.180Z,98973.98
2017-12-21T14:34:27.000Z,98973.98
2017-12-21T14:36:55.525Z,98968.95
2017-12-21T14:39:24.415Z,98975.65
2017-12-21T14:41:52.590Z,98979.39
2017-12-21T14:44:20.369Z,98976.84
2017-12-21T14:46:48.937Z,98975.56
2017-12-21T14:49:17.578Z,98975.16
2017-12-21T14:51:45.343Z,98982.02
2017-12-21T14:54:13.269Z,98984.05
2017-12-21T14:56:41.888Z,98987.37
2017-12-21T14:59:10.015Z,98993.69
2017-12-21T15:01:37.847Z,98990.30
2017-12-21T15:04:05.377Z,98997.56
2017-12-21T15:06:33.608Z,98989.89
2017-12-21T15:09:01.603Z,98989.92
2017-12-21T15:11:29.855Z,98988.16
2017-12-21T15:13:58.949Z,98990.73
2017-12-21T15:16:26.768Z,98999.23
2017-12-21T15:18:54.579Z,98995.77
2017-12-21T15:21:22.125Z,98995.84
2017-12-21T15:23:51.011Z,98992.86
2017-12-21T15:26:18.552Z,98992.43
2017-12-21T15:28:46.270Z,98989.58
2017-12-21T15:31:15.110Z,98989.52
2017-12-21T15:33:43.044Z,98992.50
2017-12-21T15:36:10.768Z,98980.27
2017-12-21T15:38:39.557Z,98984.64
2017-12-21T15:41:08.345Z,98984.16
2017-12-21T15:43:36.419Z,98979.11
2017-12-21T15:46:04.286Z,98985.05
2017-12-21T15:48:31.893Z,98983.28
2017-12-21T15:51:00.648Z,98996.27
2017-12-21T15:53:28.606Z,99004.28
2017-12-21T15:55:57.288Z,99011.07
2017-12-21T15:58:25.050Z,99010.99
2017-12-21T16:00:53.951Z,99005.14
2017-12-21T16:03:21.633Z,99007.64
2017-12-21T16:05:49.532Z,99009.70
2017-12-21T16:08:17.231Z,99019.43
2017-12-21T16:10:45.404Z,99023.65
2017-12-21T16:13:13.168Z,99016.06
2017-12-21T16:15:41.973Z,99019.55
2017-12-21T16:18:10.131Z,99027.09
2017-12-21T16:20:39.035Z,99024.48
2017-12-21T16:23:06.803Z,99037.55
2017-12-21T16:25:34.445Z,99045.12
2017-12-21T16:28:02.097Z,99045.98
2017-12-21T16:30:29.673Z,99040.56
2017-12-21T16:32:57.949Z,99047.70
2017-12-21T16:35:25.605Z,99045.94
2017-12-21T16:37:53.794Z,99058.22
2017-12-21T16:40:21.611Z,99054.89
2017-12-21T16:42:49.408Z,99057.81
2017-12-21T16:45:18.546Z,99053.57
2017-12-21T16:47:46.267Z,99057.83
2017-12-21T16:50:14.906Z,99063.26
2017-12-21T16:52:42.702Z,99064.05
2017-12-21T16:55:10.553Z,99064.13
2017-12-21T16:57:38.962Z,99059.85
2017-12-21T17:00:06.816Z,99062.86
2017-12-21T17:02:34.389Z,99064.97
2017-12-21T17:05:02.867Z,99072.52
2017-12-21T17:07:31.383Z,99070.83
2017-12-21T17:10:01.099Z,99065.30
2017-12-21T17:12:28.637Z,99072.50
2017-12-21T17:14:56.995Z,99073.30
2017-12-21T17:17:24.579Z,99079.66
2017-12-21T17:19:52.162Z,99067.84
2017-12-21T17:22:20.185Z,99072.44
2017-12-21T17:24:47.735Z,99076.23
2017-12-21T17:27:16.021Z,99079.58
2017-12-21T17:29:44.837Z,99080.91
2017-12-21T17:32:13.502Z,99082.14
2017-12-21T17:34:41.033Z,99080.91
2017-12-21T17:37:09.130Z,99085.61
2017-12-21T17:39:36.701Z,99088.92
2017-12-21T17:42:04.344Z,99097.79
2017-12-21T17:44:32.414Z,99095.66
2017-12-21T17:47:00.076Z,99098.66
2017-12-21T17:49:27.642Z,99095.26
2017-12-21T17:51:55.397Z,99096.96
2017-12-21T17:54:23.167Z,99104.55
2017-12-21T17:56:50.783Z,99093.12
2017-12-21T17:59:18.802Z,99094.37
2017-12-21T18:01:46.298Z,99087.72
2017-12-21T18:04:14.326Z,99097.38
2017-12-21T18:06:42.260Z,99097.38
2017-12-21T18:09:10.465Z,99091.06
2017-12-21T18:11:38.025Z,99090.66
2017-12-21T18:14:05.777Z,99082.22
2017-12-21T18:16:33.540Z,99089.37
2017-12-21T18:19:01.204Z,99090.70
2017-12-21T18:21:29.507Z,99089.82
2017-12-21T18:23:57.049Z,99085.23
2017-12-21T18:26:24.608Z,99084.28
2017-12-21T18:28:52.517Z,99084.73
2017-12-21T18:31:20.052Z,99092.74
2017-12-21T18:33:48.143Z,99088.98
2017-12-21T18:36:16.893Z,99088.14
2017-12-21T18:38:44.760Z,99088.55
2017-12-21T18:41:12.300Z,99086.47
2017-12-21T18:43:40.172Z,99081.00
2017-12-21T18:46:07.674Z,99090.28
2017-12-21T18:48:35.610Z,99094.02
2017-12-21T18:51:03.476Z,99095.72
2017-12-21T18:53:31.044Z,99102.87
2017-12-21T18:55:58.568Z,99103.28
2017-12-21T18:58:26.329Z,99112.18
2017-12-21T19:00:53.853Z,99120.09
2017-12-21T19:03:21.682Z,99121.82
2017-12-21T19:05:49.543Z,99124.77
2017-12-21T19:08:17.106Z,99128.90
2017-12-21T19:10:45.076Z,99130.23
2017-12-21T19:13:12.839Z,99134.45
2017-12-21T19:15:40.443Z,99147.05
2017-12-21T19:18:08.113Z,99142.44
2017-12-21T19:20:35.723Z,99140.76
2017-12-21T19:23:03.454Z,99147.52
2017-12-21T19:25:30.978Z,99142.87
2017-12-21T19:27:59.118Z,99140.79
2017-12-21T19:30:26.985Z,99134.05
2017-12-21T19:32:54.653Z,99139.94
2017-12-21T19:35:22.716Z,99142.50
2017-12-21T19:37:50.479Z,99141.19
2017-12-21T19:40:19.072Z,99139.95
2017-12-21T19:42:47.087Z,99144.14
2017-12-21T19:45:15.001Z,99136.50
2017-12-21T19:47:42.869Z,99141.66
2017-12-21T19:50:10.627Z,99146.31
2017-12-21T19:52:39.741Z,99144.19
2017-12-21T19:55:07.343Z,99148.77
2017-12-21T19:57:35.441Z,99145.78
2017-12-21T20:00:04.144Z,99147.91
2017-12-21T20:02:31.910Z,99147.09
2017-12-21T20:04:59.576Z,99141.61
2017-12-21T20:07:27.334Z,99142.91
2017-12-21T20:09:55.354Z,99136.61
2017-12-21T20:12:22.983Z,99132.82
2017-12-21T20:14:50.626Z,99127.34
2017-12-21T20:17:18.492Z,99128.22
2017-12-21T20:19:46.322Z,99116.83
2017-12-21T20:22:13.870Z,99120.22
2017-12-21T20:24:41.598Z,99119.78
2017-12-21T20:27:09.649Z,99128.62
2017-12-21T20:29:37.230Z,99125.69
2017-12-21T20:32:05.075Z,99125.69
2017-12-21T20:34:33.267Z,99118.92
2017-12-21T20:37:00.932Z,99123.98
2017-12-21T20:39:28.624Z,99120.62
2017-12-21T20:41:56.542Z,99126.92
2017-12-21T20:44:24.324Z,99122.31
2017-12-21T20:46:52.683Z,99122.72
2017-12-21T20:49:20.447Z,99126.51
2017-12-21T20:51:48.426Z,99128.62
2017-12-21T20:54:16.521Z,99129.42
2017-12-21T20:56:44.347Z,99128.59
2017-12-21T20:59:12.138Z,99129.05
2017-12-21T21:01:39.883Z,99134.51
2017-12-21T21:04:07.763Z,99134.50
2017-12-21T21:06:35.317Z,99133.67
2017-12-21T21:09:03.175Z,99137.05
2017-12-21T21:11:30.978Z,99137.46
2017-12-21T21:13:58.701Z,99136.62
2017-12-21T21:16:26.323Z,99133.69
2017-12-21T21:18:55.699Z,99134.10
2017-12-21T21:21:26.823Z,99139.58
2017-12-21T21:23:57.671Z,99142.92
2017-12-21T21:26:25.406Z,99143.34
2017-12-21T21:28:53.377Z,99146.72
2017-12-21T21:31:21.551Z,99143.36
2017-12-21T21:33:50.131Z,99148.41
2017-12-21T21:36:18.822Z,99149.22
2017-12-21T21:38:46.705Z,99147.52
2017-12-21T21:41:14.256Z,99150.89
2017-12-21T21:43:42.127Z,99150.91
2017-12-21T21:46:09.770Z,99151.72
2017-12-21T21:48:39.099Z,99157.17
2017-12-21T21:51:06.960Z,99157.19
2017-12-21T21:53:34.907Z,99161.83
2017-12-21T21:56:02.451Z,99163.53
2017-12-21T21:58:29.969Z,99165.20
2017-12-21T22:00:57.890Z,99161.39
2017-12-21T22:03:25.517Z,99168.13
2017-12-21T22:05:53.108Z,99167.70
2017-12-21T22:08:20.788Z,99170.25
2017-12-21T22:10:48.338Z,99169.45
2017-12-21T22:13:15.929Z,99174.88
2017-12-21T22:15:43.652Z,99171.55
2017-12-21T22:18:12.546Z,99176.20
2017-12-21T22:20:40.411Z,99167.33
2017-12-21T22:23:08.203Z,99171.55
2017-12-21T22:25:35.940Z,99167.76
2017-12-21T22:28:03.481Z,99158.92
2017-12-21T22:30:31.393Z,99154.31
2017-12-21T22:32:58.924Z,99155.15
2017-12-21T22:35:26.563Z,99148.00
2017-12-21T22:37:54.581Z,99142.91
2017-12-21T22:40:22.360Z,99148.00
2017-12-21T22:42:49.877Z,99142.09
2017-12-21T22:45:17.620Z,99145.90
2017-12-21T22:47:45.181Z,99147.98
2017-12-21T22:50:12.685Z,99137.05
2017-12-21T22:52:40.225Z,99134.91
2017-12-21T22:55:07.726Z,99123.96
2017-12-21T22:57:35.567Z,99122.67
2017-12-21T23:00:04.026Z,99119.77
2017-12-21T23:02:31.530Z,99114.73
2017-12-21T23:04:59.046Z,99109.25
2017-12-21T23:07:27.027Z,99107.95
2017-12-21T23:09:54.669Z,99115.98
2017-12-21T23:12:22.175Z,99116.41
2017-12-21T23:14:49.707Z,99114.28
2017-12-21T23:17:17.242Z,99114.30
2017-12-21T23:19:44.749Z,99108.00
2017-12-21T23:22:12.301Z,99112.20
2017-12-21T23:24:39.816Z,99108.39
2017-12-21T23:27:07.376Z,99108.41
2017-12-21T23:29:34.951Z,99105.48
2017-12-21T23:32:02.493Z,99102.08
2017-12-21T23:34:29.994Z,99103.34
2017-12-21T23:36:57.522Z,99099.59
2017-12-21T23:39:25.478Z,99102.91
2017-12-21T23:41:52.978Z,99095.33
2017-12-21T23:44:20.675Z,99099.14
2017-12-21T23:46:48.209Z,99097.47
2017-12-21T23:49:15.727Z,99097.02
2017-12-21T23:51:43.478Z,99100.80
2017-12-21T23:54:10.978Z,99098.28
2017-12-21T23:56:38.494Z,99101.65
2017-12-21T23:59:06.240Z,99097.42
